Flight Track Log - Related Links

Times and Time Zones

All times are in EDT time to prevent confusion due to time zone crossing. See the N143DE flight status page for this flight to view local times or setup timezone preferences in your user account.

Time Position Orientation Groundspeed Altitude Reporting Facility
EDT Latitude Longitude Course Direction KTS MPH feet Rate Location/Type
Mon 04:31:25 PM 33.8500 -84.3333 270° West 153 176 2,600  Level Atlanta TRACON
Mon 04:32:25 PM 33.8500 -84.3833 270° West 201 231 3,300 1,200 Climbing Atlanta TRACON
Mon 04:33:25 PM 33.8500 -84.4500 270° West 194 223 5,000 1,250 Climbing Atlanta TRACON
Mon 04:34:25 PM 33.8500 -84.5167 270° West 207 238 5,800 500 Climbing Atlanta TRACON
Mon 04:35:25 PM 33.8500 -84.6000 270° West 211 243 6,000 100 Climbing Atlanta TRACON
Mon 04:36:25 PM 33.8500 -84.6667 270° West 205 236 6,000 400 Level Atlanta TRACON
Mon 04:37:25 PM 33.8333 -84.7333 253° West 206 237 6,800 900 Climbing Atlanta TRACON
Mon 04:38:25 PM 33.8333 -84.8000 270° West 205 236 7,800 1,050 Climbing Atlanta TRACON
Mon 04:39:25 PM 33.8333 -84.8667 270° West 203 234 8,900 600 Climbing Atlanta TRACON
Mon 04:40:25 PM 33.8333 -84.9333 270° West 222 255 9,000 52 Climbing Atlanta TRACON
Mon 04:41:21 PM 33.8383 -85.0092 275° West 241 277 9,000 -414 Level Atlanta Center
Mon 04:42:21 PM 33.8969 -85.0172 353° North 216 249 8,200 -1,012 Descending Atlanta Center
Mon 04:44:13 PM 33.9667 -84.8667 61° Northeast 287 330 6,100 -1,081 Descending Atlanta TRACON
Mon 04:45:13 PM 33.9833 -84.7833 76° East 277 319 5,100 -579 Descending Atlanta TRACON
Mon 04:46:07 PM 34.0000 -84.7000 76° East 257 296 5,000 -50 Descending Atlanta TRACON
Mon 04:47:13 PM 34.0000 -84.6000 90° East 256 295 5,000  Level Atlanta TRACON
Mon 04:48:13 PM 34.0000 -84.5167 90° East 261 300 5,000  Level Atlanta TRACON
Mon 04:49:13 PM 33.9833 -84.4333 104° East 258 297 5,000 -350 Level Atlanta TRACON
Mon 04:50:13 PM 33.9667 -84.3500 104° East 257 296 4,300 -900 Descending Atlanta TRACON
Mon 04:51:13 PM 33.9500 -84.3000 112° Southeast 165 190 3,200 -1,105 Descending Atlanta TRACON
Mon 04:52:07 PM 33.9333 -84.2833 140° Southeast 119 137 2,200 -900 Descending Atlanta TRACON
Mon 04:53:13 PM 33.9000 -84.3000 203° Southwest 109 125 1,400 73 Descending Atlanta TRACON
Mon 04:55:00 PM 33.8270 -84.4121 232° Southwest  Level FlightAware Approximate
Mon 05:02:00 PM 33.5210 -84.8406 223° Southwest  Level FlightAware Approximate
Mon 05:03:00 PM 33.4725 -84.8948 223° Southwest  Level FlightAware Approximate
Mon 05:04:00 PM 33.4240 -84.9490 223° Southwest  Level FlightAware Approximate
Mon 05:05:00 PM 33.3755 -85.0031 223° Southwest  Level FlightAware Approximate
Mon 05:06:00 PM 33.3273 -85.0576 226° Southwest  Level FlightAware Approximate
Mon 05:07:00 PM 33.2814 -85.1150 226° Southwest  Level FlightAware Approximate
Mon 05:08:00 PM 33.2341 -85.1705 224° Southwest  Level FlightAware Approximate
Mon 05:09:00 PM 33.1861 -85.2252 224° Southwest  Level FlightAware Approximate
Mon 05:10:00 PM 33.1381 -85.2799 224° Southwest  Level FlightAware Approximate
Mon 05:11:00 PM 33.0901 -85.3345 224° Southwest  Level FlightAware Approximate
Mon 05:12:00 PM 33.0420 -85.3890 224° Southwest  Level FlightAware Approximate
Mon 05:13:00 PM 32.9939 -85.4435 224° Southwest  Level FlightAware Approximate
Mon 05:14:00 PM 32.9458 -85.4979 224° Southwest  Level FlightAware Approximate
Mon 05:15:00 PM 32.8977 -85.5523 223° Southwest  Level FlightAware Approximate
Mon 05:16:00 PM 32.8495 -85.6066 223° Southwest  Level FlightAware Approximate
Mon 05:17:00 PM 32.8013 -85.6608 223° Southwest  Level FlightAware Approximate
Mon 05:18:00 PM 32.7532 -85.7150 223° Southwest  Level FlightAware Approximate
Mon 05:19:00 PM 32.7049 -85.7691 223° Southwest  Level FlightAware Approximate
Mon 05:20:00 PM 32.6567 -85.8232 223° Southwest  Level FlightAware Approximate
Mon 05:21:00 PM 32.6084 -85.8772 223° Southwest  Level FlightAware Approximate
Mon 05:22:00 PM 32.5601 -85.9311 223° Southwest  Level FlightAware Approximate
Mon 05:23:00 PM 32.5118 -85.9850 223° Southwest  Level FlightAware Approximate
Mon 05:24:00 PM 32.4635 -86.0388 223° Southwest  Level FlightAware Approximate
Mon 05:25:00 PM 32.4151 -86.0926 223° Southwest  Level FlightAware Approximate
Mon 05:26:00 PM 32.3667 -86.1463 223° Southwest  Level FlightAware Approximate
Mon 05:27:00 PM 32.3185 -86.2003 224° Southwest  Level FlightAware Approximate
Mon 05:28:00 PM 32.2709 -86.2548 224° Southwest  Level FlightAware Approximate
Mon 05:29:00 PM 32.2231 -86.3093 224° Southwest  Level FlightAware Approximate
Mon 05:30:00 PM 32.1795 -86.3682 230° Southwest  Level FlightAware Approximate
Mon 05:30:20 PM 33.8333 -84.5500 270° West 245 282 5,000  Level Atlanta TRACON
Mon 05:31:00 PM 32.1365 -86.4278 230° Southwest  Level FlightAware Approximate
Mon 05:31:20 PM 33.8167 -84.6333 256° West 244 281 5,000  Level Atlanta TRACON
Mon 05:32:00 PM 32.0934 -86.4874 230° Southwest  Level FlightAware Approximate
Mon 05:33:00 PM 32.0504 -86.5469 230° Southwest  Level FlightAware Approximate
Mon 05:33:20 PM 33.8167 -84.7833 270° West 234 269 6,200  Level Atlanta TRACON
Mon 05:35:14 PM 33.7500 -84.9167 239° Southwest 239 275 7,000 267 Climbing Atlanta TRACON
Mon 05:36:20 PM 33.7167 -84.9833 239° Southwest 246 283 7,000 378 Level Atlanta TRACON
Mon 05:37:21 PM 33.6775 -85.0472 234° Southwest 245 282 7,800 843 Climbing Atlanta Center
Mon 05:38:21 PM 33.6394 -85.1042 231° Southwest 245 282 8,700 850 Climbing Atlanta Center
Mon 05:39:21 PM 33.5992 -85.1611 230° Southwest 222 255 9,500 900 Climbing Atlanta Center
Mon 05:40:21 PM 33.5569 -85.2128 226° Southwest 222 255 10,500 750 Climbing Atlanta Center
Mon 05:41:21 PM 33.5189 -85.2672 230° Southwest 222 255 11,000 550 Climbing Atlanta Center
Mon 05:42:21 PM 33.4722 -85.3289 228° Southwest 222 255 11,600 800 Climbing Atlanta Center
Mon 05:43:21 PM 33.4322 -85.3806 227° Southwest 217 250 12,600 900 Climbing Atlanta Center
Mon 05:44:21 PM 33.3981 -85.4322 232° Southwest 210 242 13,400 800 Climbing Atlanta Center
Mon 05:45:21 PM 33.3683 -85.4914 239° Southwest 210 242 14,200 850 Climbing Atlanta Center
Mon 05:46:21 PM 33.3403 -85.5506 240° Southwest 210 242 15,100 800 Climbing Atlanta Center
Mon 05:47:21 PM 33.3128 -85.5975 235° Southwest 205 236 15,800 700 Climbing Atlanta Center
Mon 05:48:21 PM 33.2828 -85.6539 238° Southwest 205 236 16,500 700 Climbing Atlanta Center
Mon 05:49:21 PM 33.2550 -85.7081 238° Southwest 205 236 17,200 650 Climbing Atlanta Center
Mon 05:50:21 PM 33.2247 -85.7672 239° Southwest 205 236 17,800 550 Climbing Atlanta Center
Mon 05:51:21 PM 33.1928 -85.8211 235° Southwest 205 236 18,300 600 Climbing Atlanta Center
Mon 05:52:21 PM 33.1647 -85.8753 238° Southwest 205 236 19,000 650 Climbing Atlanta Center
Mon 05:53:21 PM 33.1328 -85.9217 231° Southwest 194 223 19,600 550 Climbing Atlanta Center
Mon 05:54:21 PM 33.1028 -85.9756 236° Southwest 194 223 20,100 450 Climbing Atlanta Center
Mon 05:55:21 PM 33.0728 -86.0269 235° Southwest 189 217 20,500 600 Climbing Atlanta Center
Mon 05:56:21 PM 33.0325 -86.0656 219° Southwest 189 217 21,300 750 Climbing Atlanta Center
Mon 05:57:21 PM 32.9942 -86.0994 217° Southwest 184 212 22,000 350 Climbing Atlanta Center
Mon 05:58:21 PM 32.9561 -86.1381 220° Southwest 184 212 22,000  Level Atlanta Center
Mon 05:59:21 PM 32.9136 -86.1767 217° Southwest 191 220 22,000  Level Atlanta Center
Mon 06:00:21 PM 32.8711 -86.2203 221° Southwest 196 226 22,000  Level Atlanta Center
Mon 06:01:21 PM 32.8286 -86.2611 219° Southwest 203 234 22,000  Level Atlanta Center
Mon 06:02:21 PM 32.7842 -86.3044 219° Southwest 203 234 22,000  Level Atlanta Center
Mon 06:03:21 PM 32.7394 -86.3406 214° Southwest 203 234 22,000  Level Atlanta Center
Mon 06:04:21 PM 32.6928 -86.3886 221° Southwest 209 241 22,000  Level Atlanta Center
Mon 06:05:21 PM 32.6481 -86.4342 221° Southwest 209 241 22,000  Level Atlanta Center
Mon 06:06:21 PM 32.6056 -86.4750 219° Southwest 209 241 22,000  Level Atlanta Center
Mon 06:07:21 PM 32.5586 -86.5181 218° Southwest 209 241 22,000  Level Atlanta Center
Mon 06:08:21 PM 32.5161 -86.5589 219° Southwest 209 241 22,000  Level Atlanta Center
Mon 06:09:21 PM 32.4756 -86.6094 226° Southwest 209 241 22,000  Level Atlanta Center
Mon 06:10:21 PM 32.4267 -86.6497 215° Southwest 216 249 22,000  Level Atlanta Center
Mon 06:11:21 PM 32.3817 -86.6950 220° Southwest 216 249 22,000  Level Atlanta Center
Mon 06:12:21 PM 32.3286 -86.7353 213° Southwest 210 242 22,000  Level Atlanta Center
Mon 06:13:21 PM 32.2839 -86.7758 217° Southwest 210 242 22,000  Level Atlanta Center
Mon 06:14:21 PM 32.2369 -86.8233 221° Southwest 210 242 22,000  Level Atlanta Center
Mon 06:15:21 PM 32.1922 -86.8661 219° Southwest 210 242 22,000  Level Atlanta Center
Mon 06:16:21 PM 32.1453 -86.9089 218° Southwest 215 247 22,000 -350 Level Atlanta Center
Mon 06:17:21 PM 32.0964 -86.9539 218° Southwest 215 247 21,300 -750 Descending Atlanta Center
Mon 06:18:21 PM 32.0472 -87.0014 219° Southwest 220 253 20,500 -850 Descending Atlanta Center
Mon 06:19:21 PM 31.9917 -87.0508 217° Southwest 233 268 19,600 -950 Descending Atlanta Center
Mon 06:20:21 PM 31.9383 -87.1028 220° Southwest 244 281 18,600 -1,020 Descending Atlanta Center
Mon 06:21:54 PM 31.8517 -87.1781 216° Southwest 260 299 17,000 -968 Descending Houston Center
Mon 06:22:56 PM 31.7925 -87.2328 218° Southwest 267 307 16,100 -780 Descending Houston Center
Mon 06:23:57 PM 31.7342 -87.2892 219° Southwest 271 312 15,400 -732 Descending Houston Center
Mon 06:24:59 PM 31.6767 -87.3436 219° Southwest 267 307 14,600 -774 Descending Houston Center
Mon 06:26:01 PM 31.6083 -87.4072 218° Southwest 262 302 13,800 -774 Descending Houston Center
Mon 06:27:03 PM 31.5492 -87.4619 218° Southwest 268 308 13,000 -726 Descending Houston Center
Mon 06:28:05 PM 31.4911 -87.5150 218° Southwest 266 306 12,300 -629 Descending Houston Center
Mon 06:29:07 PM 31.4342 -87.5672 218° Southwest 262 302 11,700 -629 Descending Houston Center
Mon 06:30:09 PM 31.3781 -87.6183 218° Southwest 257 296 11,000 -341 Descending Houston Center
Mon 06:31:10 PM 31.3233 -87.6692 218° Southwest 254 292 11,000  Level Houston Center
Mon 06:32:13 PM 31.2714 -87.7156 217° Southwest 240 276 11,000 -581 Level Houston Center
Mon 06:33:14 PM 31.2069 -87.7769 219° Southwest 246 283 9,800 -1,024 Descending Houston Center
Mon 06:34:16 PM 31.1519 -87.8289 219° Southwest 252 290 8,900 -919 Descending Houston Center
Mon 06:35:18 PM 31.0975 -87.8792 218° Southwest 250 288 7,900 -919 Descending Houston Center
Mon 06:36:20 PM 31.0444 -87.9233 216° Southwest 241 277 7,000 -435 Descending Houston Center
Mon 06:37:22 PM 30.9967 -87.9694 220° Southwest 228 262 7,000 -341 Level Houston Center
Mon 06:38:23 PM 30.9617 -88.0292 236° Southwest 223 257 6,300 -927 Descending Houston Center
Mon 06:39:25 PM 30.9189 -88.0919 232° Southwest 239 275 5,100 -1,161 Descending Houston Center
Mon 06:40:27 PM 30.8731 -88.1561 230° Southwest 248 285 3,900 -1,016 Descending Houston Center
Mon 06:41:29 PM 30.8297 -88.2194 231° Southwest 250 288 3,000 -1,024 Descending Houston Center
Mon 06:42:30 PM 30.7678 -88.2703 215° Southwest 226 260 1,800 -1,024 Descending Houston Center
Mon 06:43:32 PM 30.7214 -88.2714 181° South 188 216 900 -677 Descending Houston Center
Mon 06:44:34 PM 30.6989 -88.2492 140° Southeast 153 176 400 -484 Descending Houston Center
Mon 06:46:00 PM 30.6914 -88.2428 221° Southwest  Level Estimated

Login

Don't have an account? Register now (free) for customized features, flight alerts, and more!